createdAt,value
2023-04-15T00:00:52.503Z,9.27
2023-04-15T00:03:15.387Z,9.95
2023-04-15T00:05:38.549Z,9.57
2023-04-15T00:08:02.953Z,8.95
2023-04-15T00:10:27.536Z,8.97
2023-04-15T00:12:50.166Z,10.52
2023-04-15T00:15:12.861Z,9.55
2023-04-15T00:17:36.237Z,10.65
2023-04-15T00:20:00.054Z,9.93
2023-04-15T00:22:22.793Z,9.80
2023-04-15T00:24:45.367Z,10.45
2023-04-15T00:27:17.316Z,11.45
2023-04-15T00:29:40.042Z,11.35
2023-04-15T00:32:03.057Z,10.50
2023-04-15T00:34:25.777Z,11.90
2023-04-15T00:36:48.501Z,11.80
2023-04-15T00:39:11.121Z,11.48
2023-04-15T00:41:34.310Z,11.30
2023-04-15T00:43:57.926Z,12.00
2023-04-15T00:46:22.810Z,9.87
2023-04-15T00:48:46.976Z,12.25
2023-04-15T00:51:09.876Z,11.30
2023-04-15T00:53:32.441Z,9.55
2023-04-15T00:55:55.814Z,9.35
2023-04-15T00:58:19.196Z,9.03
2023-04-15T01:00:43.520Z,11.85
2023-04-15T01:03:06.339Z,11.70
2023-04-15T01:05:30.315Z,9.52
2023-04-15T01:07:53.140Z,9.50
2023-04-15T01:10:16.474Z,9.70
2023-04-15T01:12:39.700Z,10.20
2023-04-15T01:15:03.320Z,9.55
2023-04-15T01:17:26.096Z,10.30
2023-04-15T01:19:48.942Z,8.93
2023-04-15T01:22:11.858Z,10.20
2023-04-15T01:24:37.056Z,9.98
2023-04-15T01:27:00.020Z,10.18
2023-04-15T01:29:23.284Z,10.80
2023-04-15T01:31:53.853Z,9.35
2023-04-15T01:34:35.960Z,11.47
2023-04-15T01:37:17.105Z,9.98
2023-04-15T01:39:40.557Z,8.85
2023-04-15T01:42:04.239Z,9.90
2023-04-15T01:44:28.128Z,9.85
2023-04-15T01:46:52.170Z,8.97
2023-04-15T01:49:17.272Z,10.82
2023-04-15T01:51:41.101Z,11.45
2023-04-15T01:54:05.161Z,8.00
2023-04-15T01:56:28.996Z,8.65
2023-04-15T01:58:53.202Z,8.00
2023-04-15T02:01:19.728Z,9.30
2023-04-15T02:03:43.872Z,9.68
2023-04-15T02:06:07.672Z,8.85
2023-04-15T02:08:31.782Z,9.25
2023-04-15T02:10:55.669Z,9.63
2023-04-15T02:13:20.062Z,8.55
2023-04-15T02:15:50.976Z,8.60
2023-04-15T02:18:16.839Z,9.93
2023-04-15T02:20:40.770Z,9.65
2023-04-15T02:23:07.514Z,8.20
2023-04-15T02:25:31.516Z,8.60
2023-04-15T02:27:57.833Z,9.30
2023-04-15T02:30:24.027Z,8.30
2023-04-15T02:32:48.539Z,8.07
2023-04-15T02:35:12.585Z,8.47
2023-04-15T02:37:40.877Z,9.90
2023-04-15T02:40:09.549Z,8.20
2023-04-15T02:42:33.523Z,8.57
2023-04-15T02:44:59.448Z,10.20
2023-04-15T02:47:27.956Z,9.63
2023-04-15T02:49:52.304Z,8.55
2023-04-15T02:52:16.443Z,8.38
2023-04-15T02:54:40.248Z,8.15
2023-04-15T02:57:06.824Z,8.80
2023-04-15T02:59:31.001Z,8.33
2023-04-15T03:01:56.748Z,10.32
2023-04-15T03:04:20.972Z,9.30
2023-04-15T03:06:45.047Z,9.88
2023-04-15T03:09:08.973Z,9.07
2023-04-15T03:11:36.447Z,12.63
2023-04-15T03:14:00.805Z,9.00
2023-04-15T03:16:29.712Z,10.20
2023-04-15T03:18:55.222Z,9.55
2023-04-15T03:21:20.434Z,9.85
2023-04-15T03:23:46.166Z,9.07
2023-04-15T03:26:10.044Z,10.07
2023-04-15T03:28:34.195Z,8.98
2023-04-15T03:31:00.675Z,10.90
2023-04-15T03:33:24.794Z,9.30
2023-04-15T03:35:48.707Z,11.33
2023-04-15T03:38:12.582Z,9.85
2023-04-15T03:40:39.294Z,10.45
2023-04-15T03:43:03.160Z,13.27
2023-04-15T03:45:26.959Z,10.70
2023-04-15T03:47:50.872Z,10.20
2023-04-15T03:50:14.754Z,10.27
2023-04-15T03:52:38.711Z,11.23
2023-04-15T03:55:02.574Z,9.43
2023-04-15T03:57:26.548Z,10.77
2023-04-15T03:59:50.735Z,11.33
2023-04-15T04:02:14.629Z,10.32
2023-04-15T04:04:38.561Z,11.52
2023-04-15T04:07:02.306Z,10.13
2023-04-15T04:09:26.217Z,10.43
2023-04-15T04:11:50.193Z,12.07
2023-04-15T04:14:14.012Z,11.18
2023-04-15T04:16:37.904Z,11.48
2023-04-15T04:19:02.406Z,10.20
2023-04-15T04:21:26.846Z,10.90
2023-04-15T04:23:50.932Z,9.93
2023-04-15T04:26:14.777Z,14.55
2023-04-15T04:28:40.641Z,11.93
2023-04-15T04:31:04.547Z,10.70
2023-04-15T04:33:28.602Z,11.45
2023-04-15T04:35:52.413Z,10.77
2023-04-15T04:38:16.425Z,10.68
2023-04-15T04:40:40.413Z,11.55
2023-04-15T04:43:04.473Z,10.20
2023-04-15T04:45:28.374Z,11.25
2023-04-15T04:47:52.230Z,10.17
2023-04-15T04:50:16.784Z,9.13
2023-04-15T04:52:40.689Z,9.30
2023-04-15T04:55:05.419Z,9.30
2023-04-15T04:57:29.265Z,8.77
2023-04-15T04:59:53.220Z,11.47
2023-04-15T05:02:17.238Z,9.07
2023-04-15T05:04:41.873Z,9.50
2023-04-15T05:07:05.709Z,9.40
2023-04-15T05:09:32.286Z,8.98
2023-04-15T05:11:56.724Z,10.60
2023-04-15T05:14:22.184Z,10.30
2023-04-15T05:16:47.292Z,9.77
2023-04-15T05:19:11.054Z,10.45
2023-04-15T05:21:36.218Z,9.10
2023-04-15T05:24:01.211Z,9.57
2023-04-15T05:26:25.137Z,9.68
2023-04-15T05:28:49.725Z,8.70
2023-04-15T05:31:14.310Z,8.10
2023-04-15T05:33:38.234Z,7.40
2023-04-15T05:36:02.150Z,7.17
2023-04-15T05:38:26.241Z,7.22
2023-04-15T05:40:50.118Z,6.72
2023-04-15T05:43:14.073Z,8.18
2023-04-15T05:45:40.923Z,7.20
2023-04-15T05:48:04.734Z,6.90
2023-04-15T05:50:28.630Z,6.70
2023-04-15T05:52:52.616Z,8.68
2023-04-15T05:55:16.606Z,7.18
2023-04-15T05:57:40.795Z,8.77
2023-04-15T06:00:06.169Z,8.97
2023-04-15T06:02:33.654Z,9.95
2023-04-15T06:04:58.020Z,11.15
2023-04-15T06:07:21.940Z,12.52
2023-04-15T06:09:45.954Z,11.82
2023-04-15T06:12:12.422Z,14.77
2023-04-15T06:14:36.324Z,13.45
2023-04-15T06:17:00.189Z,16.38
2023-04-15T06:19:24.700Z,14.85
2023-04-15T06:21:48.837Z,14.25
2023-04-15T06:24:13.088Z,16.20
2023-04-15T06:26:36.831Z,14.68
2023-04-15T06:29:00.980Z,15.75
2023-04-15T06:31:24.953Z,12.75
2023-04-15T06:33:49.075Z,13.07
2023-04-15T06:36:13.006Z,12.17
2023-04-15T06:38:37.063Z,11.23
2023-04-15T06:41:01.303Z,10.52
2023-04-15T06:43:25.809Z,11.13
2023-04-15T06:45:49.790Z,9.07
2023-04-15T06:48:13.766Z,11.03
2023-04-15T06:50:37.782Z,10.32
2023-04-15T06:53:02.201Z,9.15
2023-04-15T06:55:26.049Z,8.18
2023-04-15T06:57:50.058Z,7.15
2023-04-15T07:00:14.518Z,7.97
2023-04-15T07:02:38.736Z,9.38
2023-04-15T07:05:02.960Z,6.97
2023-04-15T07:07:26.804Z,7.53
2023-04-15T07:12:28.514Z,7.07
2023-04-15T07:14:52.635Z,7.25
2023-04-15T07:17:16.714Z,9.65
2023-04-15T07:19:40.717Z,8.82
2023-04-15T07:22:04.934Z,9.25
2023-04-15T07:24:28.795Z,9.33
2023-04-15T07:26:59.424Z,8.00
2023-04-15T07:29:25.553Z,9.57
2023-04-15T07:31:49.600Z,7.78
2023-04-15T07:34:14.717Z,9.40
2023-04-15T07:36:38.627Z,9.93
2023-04-15T07:39:06.382Z,11.60
2023-04-15T07:41:31.130Z,9.15
2023-04-15T07:43:55.380Z,5.90
2023-04-15T07:46:19.295Z,4.90
2023-04-15T07:48:43.350Z,5.07
2023-04-15T07:51:07.127Z,3.70
2023-04-15T07:53:33.010Z,4.30
2023-04-15T07:55:57.502Z,4.25
2023-04-15T07:58:21.401Z,3.47
2023-04-15T08:00:45.818Z,3.60
2023-04-15T08:03:10.022Z,3.63
2023-04-15T08:05:34.678Z,3.15
2023-04-15T08:07:58.757Z,3.28
2023-04-15T08:10:23.079Z,4.57
2023-04-15T08:12:49.576Z,3.63
2023-04-15T08:15:13.513Z,3.40
2023-04-15T08:17:37.439Z,3.30
2023-04-15T08:20:01.378Z,3.08
2023-04-15T08:22:25.493Z,3.65
2023-04-15T08:24:49.342Z,4.27
2023-04-15T08:27:13.698Z,3.83
2023-04-15T08:29:37.538Z,3.67
2023-04-15T08:32:01.824Z,4.00
2023-04-15T08:34:25.668Z,3.97
2023-04-15T08:36:49.543Z,3.80
2023-04-15T08:39:13.553Z,4.15
2023-04-15T08:41:46.518Z,4.25
2023-04-15T08:44:11.373Z,4.35
2023-04-15T08:46:35.309Z,4.57
2023-04-15T08:48:59.928Z,3.80
2023-04-15T08:51:25.265Z,4.80
2023-04-15T08:53:50.514Z,3.92
2023-04-15T08:56:16.911Z,2.60
2023-04-15T08:58:41.651Z,2.65
2023-04-15T09:01:05.849Z,2.53
2023-04-15T09:03:30.783Z,2.88
2023-04-15T09:05:55.204Z,2.10
2023-04-15T09:08:19.132Z,2.38
2023-04-15T09:10:43.283Z,2.50
2023-04-15T09:13:07.244Z,2.63
2023-04-15T09:15:33.245Z,1.80
2023-04-15T09:17:57.377Z,1.00
2023-04-15T09:20:21.412Z,1.38
2023-04-15T09:22:47.265Z,1.02
2023-04-15T09:25:29.287Z,1.40
2023-04-15T09:27:58.166Z,1.50
2023-04-15T09:30:22.546Z,1.50
2023-04-15T09:32:57.409Z,2.03
2023-04-15T09:35:22.603Z,1.60
2023-04-15T09:37:46.591Z,1.73
2023-04-15T09:40:11.102Z,1.85
2023-04-15T09:42:35.026Z,1.80
2023-04-15T09:45:09.334Z,1.60
2023-04-15T09:47:33.265Z,1.30
2023-04-15T09:49:58.722Z,1.20
2023-04-15T09:52:22.789Z,1.10
2023-04-15T09:54:46.648Z,1.35
2023-04-15T09:57:10.859Z,1.10
2023-04-15T09:59:34.986Z,1.55
2023-04-15T10:01:59.857Z,1.60
2023-04-15T10:04:24.821Z,1.30
2023-04-15T10:06:48.962Z,1.55
2023-04-15T10:09:13.634Z,1.20
2023-04-15T10:11:38.579Z,2.05
2023-04-15T10:14:03.191Z,1.80
2023-04-15T10:16:31.623Z,1.70
2023-04-15T10:18:56.473Z,2.08
2023-04-15T10:21:22.702Z,1.80
2023-04-15T10:23:47.328Z,2.15
2023-04-15T10:26:12.534Z,1.90
2023-04-15T10:28:36.700Z,1.65
2023-04-15T10:31:01.936Z,2.20
2023-04-15T10:33:26.671Z,1.98
2023-04-15T10:35:51.945Z,1.95
2023-04-15T10:38:45.880Z,1.30
2023-04-15T10:41:24.708Z,2.03
2023-04-15T10:43:57.815Z,2.58
2023-04-15T10:46:41.660Z,2.30
2023-04-15T10:49:13.714Z,2.20
2023-04-15T10:51:42.195Z,1.73
2023-04-15T10:54:16.836Z,2.30
2023-04-15T10:56:45.507Z,1.88
2023-04-15T10:59:09.783Z,2.08
2023-04-15T11:01:53.769Z,1.90
2023-04-15T11:04:57.628Z,2.80
2023-04-15T11:08:02.801Z,2.38
2023-04-15T11:10:41.046Z,2.80
2023-04-15T11:13:17.288Z,1.97
2023-04-15T11:15:47.211Z,2.30
2023-04-15T11:18:22.244Z,2.13
2023-04-15T11:20:55.035Z,3.15
2023-04-15T11:23:20.463Z,2.42
2023-04-15T11:25:44.740Z,2.37
2023-04-15T11:28:08.774Z,1.60
2023-04-15T11:30:34.949Z,1.90
2023-04-15T11:33:04.558Z,3.28
2023-04-15T11:35:28.809Z,2.10
2023-04-15T11:37:53.127Z,3.03
2023-04-15T11:40:22.408Z,2.40
2023-04-15T11:42:49.988Z,1.85
2023-04-15T11:45:15.552Z,2.05
2023-04-15T11:47:40.573Z,1.70
2023-04-15T11:50:24.085Z,1.80
2023-04-15T11:52:57.246Z,2.20
2023-04-15T11:55:20.338Z,2.40
2023-04-15T11:57:43.238Z,2.10
2023-04-15T12:00:06.786Z,2.35
2023-04-15T12:02:33.320Z,2.43
2023-04-15T12:05:06.503Z,2.08
2023-04-15T12:07:29.262Z,2.03
2023-04-15T12:09:56.810Z,2.10
2023-04-15T12:12:19.617Z,2.25
2023-04-15T12:14:42.406Z,1.63
2023-04-15T12:17:06.575Z,2.08
2023-04-15T12:19:30.439Z,2.40
2023-04-15T12:22:00.531Z,2.38
2023-04-15T12:24:23.664Z,1.85
2023-04-15T12:26:48.675Z,2.20
2023-04-15T12:29:13.204Z,1.85
2023-04-15T12:31:36.934Z,1.95
2023-04-15T12:34:01.333Z,1.73
2023-04-15T12:36:24.234Z,2.08
2023-04-15T12:38:46.847Z,1.63
2023-04-15T12:41:09.816Z,1.67
2023-04-15T12:43:32.491Z,2.30
2023-04-15T12:45:55.893Z,2.60
2023-04-15T12:48:18.690Z,2.70
2023-04-15T12:50:41.385Z,2.87
2023-04-15T12:53:04.788Z,2.17
2023-04-15T12:55:27.781Z,2.00
2023-04-15T12:57:50.327Z,3.08
2023-04-15T13:00:13.546Z,2.20
2023-04-15T13:02:37.132Z,2.17
2023-04-15T13:05:00.125Z,2.50
2023-04-15T13:07:22.800Z,2.28
2023-04-15T13:09:45.662Z,1.98
2023-04-15T13:12:08.308Z,2.53
2023-04-15T13:14:31.184Z,3.10
2023-04-15T13:16:53.989Z,3.83
2023-04-15T13:19:19.319Z,2.33
2023-04-15T13:21:42.068Z,1.92
2023-04-15T13:24:07.233Z,1.98
2023-04-15T13:26:30.168Z,2.27
2023-04-15T13:28:52.811Z,2.63
2023-04-15T13:31:15.922Z,2.78
2023-04-15T13:33:39.236Z,1.52
2023-04-15T13:36:02.078Z,2.42
2023-04-15T13:38:25.562Z,1.80
2023-04-15T13:40:48.576Z,1.83
2023-04-15T13:43:11.685Z,1.48
2023-04-15T13:45:34.353Z,1.75
2023-04-15T13:47:57.508Z,1.30
2023-04-15T13:50:20.344Z,1.00
2023-04-15T13:52:43.054Z,1.52
2023-04-15T13:55:18.272Z,1.23
2023-04-15T13:57:42.758Z,1.67
2023-04-15T14:00:06.281Z,1.40
2023-04-15T14:02:29.265Z,1.90
2023-04-15T14:04:52.202Z,2.03
2023-04-15T14:07:15.035Z,1.20
2023-04-15T14:09:42.992Z,1.83
2023-04-15T14:12:06.669Z,1.35
2023-04-15T14:14:29.546Z,1.20
2023-04-15T14:16:52.232Z,1.25
2023-04-15T14:19:15.121Z,1.80
2023-04-15T14:21:58.478Z,4.30
2023-04-15T14:24:21.050Z,1.95
2023-04-15T14:26:44.762Z,1.80
2023-04-15T14:29:07.629Z,2.20
2023-04-15T14:31:30.341Z,3.17
2023-04-15T14:33:52.902Z,2.10
2023-04-15T14:36:16.067Z,2.38
2023-04-15T14:38:40.005Z,2.90
2023-04-15T14:41:02.809Z,1.80
2023-04-15T14:43:25.597Z,1.95
2023-04-15T14:45:48.286Z,1.83
2023-04-15T14:48:12.722Z,1.75
2023-04-15T14:50:36.465Z,2.50
2023-04-15T14:52:59.484Z,2.65
2023-04-15T14:55:22.143Z,2.63
2023-04-15T14:57:44.800Z,2.78
2023-04-15T15:00:10.027Z,2.83
2023-04-15T15:02:39.319Z,4.23
2023-04-15T15:05:03.612Z,4.25
2023-04-15T15:07:27.310Z,4.60
2023-04-15T15:12:27.551Z,6.93
2023-04-15T15:14:50.406Z,6.07
2023-04-15T15:17:13.063Z,6.45
2023-04-15T15:19:36.159Z,5.20
2023-04-15T15:21:59.004Z,5.15
2023-04-15T15:24:21.674Z,6.18
2023-04-15T15:26:44.354Z,5.03
2023-04-15T15:29:07.151Z,7.57
2023-04-15T15:31:30.065Z,5.10
2023-04-15T15:33:53.085Z,5.53
2023-04-15T15:36:16.360Z,5.88
2023-04-15T15:38:40.751Z,5.20
2023-04-15T15:41:05.193Z,5.35
2023-04-15T15:43:27.891Z,6.88
2023-04-15T15:45:52.316Z,7.22
2023-04-15T15:48:15.327Z,6.47
2023-04-15T15:50:38.146Z,4.63
2023-04-15T15:53:00.864Z,4.07
2023-04-15T15:55:25.296Z,5.05
2023-04-15T15:57:48.269Z,4.97
2023-04-15T16:00:12.715Z,5.03
2023-04-15T16:03:04.367Z,6.37
2023-04-15T16:05:19.568Z,5.35
2023-04-15T16:07:42.556Z,3.70
2023-04-15T16:10:06.040Z,3.20
2023-04-15T16:12:28.809Z,3.60
2023-04-15T16:14:51.582Z,2.23
2023-04-15T16:17:14.288Z,2.85
2023-04-15T16:19:36.925Z,2.15
2023-04-15T16:22:01.595Z,2.38
2023-04-15T16:24:24.226Z,1.80
2023-04-15T16:26:47.276Z,2.00
2023-04-15T16:29:10.334Z,1.60
2023-04-15T16:31:34.920Z,1.50
2023-04-15T16:33:58.142Z,1.42
2023-04-15T16:36:20.764Z,1.20
2023-04-15T16:38:45.356Z,1.80
2023-04-15T16:41:08.149Z,2.47
2023-04-15T16:43:35.244Z,2.50
2023-04-15T16:45:57.853Z,2.70
2023-04-15T16:48:21.214Z,2.50
2023-04-15T16:50:44.398Z,2.27
2023-04-15T16:53:07.107Z,2.55
2023-04-15T16:55:29.894Z,3.78
2023-04-15T16:58:02.369Z,3.30
2023-04-15T17:00:26.475Z,3.05
2023-04-15T17:02:49.844Z,3.23
2023-04-15T17:05:12.821Z,3.20
2023-04-15T17:07:35.652Z,3.72
2023-04-15T17:09:58.680Z,3.33
2023-04-15T17:12:21.372Z,2.80
2023-04-15T17:14:43.903Z,2.97
2023-04-15T17:17:06.932Z,3.17
2023-04-15T17:19:32.920Z,3.63
2023-04-15T17:22:02.350Z,3.05
2023-04-15T17:24:26.623Z,3.78
2023-04-15T17:26:54.740Z,3.60
2023-04-15T17:29:17.575Z,3.67
2023-04-15T17:31:44.018Z,3.22
2023-04-15T17:34:28.690Z,3.65
2023-04-15T17:37:31.619Z,3.33
2023-04-15T17:40:14.970Z,3.50
2023-04-15T17:42:58.736Z,3.50
2023-04-15T17:45:41.840Z,4.10
2023-04-15T17:48:26.363Z,3.92
2023-04-15T17:51:09.290Z,4.18
2023-04-15T17:53:52.309Z,3.97
2023-04-15T17:56:35.241Z,5.13
2023-04-15T17:59:18.223Z,5.55
2023-04-15T18:02:01.221Z,6.43
2023-04-15T18:04:44.123Z,5.85
2023-04-15T18:07:26.819Z,4.73
2023-04-15T18:10:09.784Z,4.28
2023-04-15T18:12:53.470Z,4.60
2023-04-15T18:15:36.168Z,5.57
2023-04-15T18:18:20.428Z,6.38
2023-04-15T18:20:56.221Z,6.33
2023-04-15T18:23:19.891Z,5.13
2023-04-15T18:25:43.857Z,6.15
2023-04-15T18:28:06.526Z,6.30
2023-04-15T18:30:29.668Z,7.30
2023-04-15T18:32:52.762Z,6.40
2023-04-15T18:35:17.192Z,8.98
2023-04-15T18:37:39.889Z,6.60
2023-04-15T18:40:02.614Z,7.78
2023-04-15T18:42:25.980Z,7.20
2023-04-15T18:44:49.402Z,6.93
2023-04-15T18:47:12.470Z,7.53
2023-04-15T18:49:35.437Z,7.72
2023-04-15T18:51:58.250Z,7.75
2023-04-15T18:54:20.957Z,7.95
2023-04-15T18:56:44.116Z,9.20
2023-04-15T18:59:22.918Z,9.52
2023-04-15T19:01:51.503Z,10.27
2023-04-15T19:04:14.797Z,12.93
2023-04-15T19:06:38.275Z,10.73
2023-04-15T19:09:02.514Z,11.07
2023-04-15T19:11:26.227Z,10.65
2023-04-15T19:13:52.374Z,10.57
2023-04-15T19:16:15.385Z,9.98
2023-04-15T19:18:38.409Z,11.18
2023-04-15T19:21:01.851Z,10.07
2023-04-15T19:23:24.955Z,10.25
2023-04-15T19:25:47.887Z,13.13
2023-04-15T19:28:10.573Z,13.90
2023-04-15T19:30:33.874Z,13.65
2023-04-15T19:32:57.265Z,13.00
2023-04-15T19:35:20.478Z,14.80
2023-04-15T19:37:44.099Z,13.20
2023-04-15T19:40:08.656Z,13.75
2023-04-15T19:42:31.664Z,15.38
2023-04-15T19:44:54.592Z,12.63
2023-04-15T19:47:17.475Z,13.80
2023-04-15T19:49:40.537Z,12.27
2023-04-15T19:52:04.517Z,11.20
2023-04-15T19:54:27.989Z,12.13
2023-04-15T19:56:50.970Z,11.63
2023-04-15T19:59:13.664Z,12.68
2023-04-15T20:01:36.619Z,12.18
2023-04-15T20:03:59.985Z,11.77
2023-04-15T20:06:23.199Z,11.90
2023-04-15T20:08:46.493Z,12.07
2023-04-15T20:11:10.215Z,11.30
2023-04-15T20:13:34.356Z,11.60
2023-04-15T20:15:57.431Z,10.02
2023-04-15T20:18:20.858Z,9.63
2023-04-15T20:20:43.674Z,9.27
2023-04-15T20:23:06.401Z,10.45
2023-04-15T20:25:28.971Z,18.50
2023-04-15T20:27:52.296Z,41.58
2023-04-15T20:30:15.008Z,29.23
2023-04-15T20:32:38.763Z,28.80
2023-04-15T20:35:03.196Z,29.40
2023-04-15T20:37:26.082Z,21.02
2023-04-15T20:39:48.923Z,17.77
2023-04-15T20:42:12.214Z,12.82
2023-04-15T20:44:34.853Z,10.17
2023-04-15T20:46:57.789Z,11.23
2023-04-15T20:49:20.427Z,8.50
2023-04-15T20:51:43.230Z,7.05
2023-04-15T20:54:06.750Z,7.95
2023-04-15T20:56:29.912Z,9.20
2023-04-15T20:58:52.538Z,9.40
2023-04-15T21:01:15.465Z,9.73
2023-04-15T21:03:38.559Z,8.48
2023-04-15T21:06:01.789Z,9.27
2023-04-15T21:08:29.716Z,10.37
2023-04-15T21:10:52.504Z,11.77
2023-04-15T21:13:17.659Z,12.45
2023-04-15T21:15:40.564Z,10.57
2023-04-15T21:18:03.542Z,17.83
2023-04-15T21:20:26.186Z,13.63
2023-04-15T21:22:49.109Z,29.52
2023-04-15T21:25:12.616Z,26.50
2023-04-15T21:27:35.208Z,16.98
2023-04-15T21:29:57.915Z,16.73
2023-04-15T21:32:20.627Z,16.20
2023-04-15T21:34:43.302Z,17.60
2023-04-15T21:37:05.837Z,19.65
2023-04-15T21:39:28.837Z,18.38
2023-04-15T21:41:51.540Z,19.00
2023-04-15T21:44:15.086Z,16.97
2023-04-15T21:46:37.885Z,17.00
2023-04-15T21:49:02.085Z,14.93
2023-04-15T21:51:24.784Z,14.18
2023-04-15T21:53:47.473Z,15.02
2023-04-15T21:56:10.149Z,13.87
2023-04-15T21:58:32.825Z,13.30
2023-04-15T22:01:00.030Z,15.20
2023-04-15T22:03:23.674Z,13.63
2023-04-15T22:05:46.342Z,14.05
2023-04-15T22:08:09.076Z,16.37
2023-04-15T22:10:31.956Z,14.13
2023-04-15T22:12:54.879Z,13.65
2023-04-15T22:15:17.460Z,13.35
2023-04-15T22:17:40.135Z,15.05
2023-04-15T22:20:03.747Z,14.70
2023-04-15T22:22:37.712Z,15.85
2023-04-15T22:25:07.769Z,15.68
2023-04-15T22:27:30.361Z,17.48
2023-04-15T22:29:53.313Z,19.95
2023-04-15T22:32:15.882Z,16.03
2023-04-15T22:34:38.599Z,16.05
2023-04-15T22:37:01.171Z,18.10
2023-04-15T22:39:23.860Z,19.17
2023-04-15T22:41:47.004Z,20.08
2023-04-15T22:44:09.679Z,20.60
2023-04-15T22:46:32.402Z,19.73
2023-04-15T22:48:55.133Z,22.35
2023-04-15T22:51:26.896Z,24.17
2023-04-15T22:53:50.673Z,26.45
2023-04-15T22:56:13.434Z,25.43
2023-04-15T22:58:36.153Z,25.60
2023-04-15T23:00:59.187Z,25.88
2023-04-15T23:03:21.957Z,25.95
2023-04-15T23:05:45.677Z,28.27
2023-04-15T23:08:08.587Z,27.20
2023-04-15T23:10:31.497Z,27.35
2023-04-15T23:12:54.090Z,28.80
2023-04-15T23:15:16.951Z,29.27
2023-04-15T23:17:39.780Z,28.15
2023-04-15T23:20:02.426Z,28.20
2023-04-15T23:22:26.244Z,28.08
2023-04-15T23:24:49.443Z,26.98
2023-04-15T23:27:12.057Z,24.88
2023-04-15T23:29:34.775Z,27.25
2023-04-15T23:31:57.426Z,25.17
2023-04-15T23:34:20.120Z,26.65
2023-04-15T23:36:42.920Z,29.55
2023-04-15T23:39:05.762Z,26.00
2023-04-15T23:41:28.441Z,25.50
2023-04-15T23:43:51.187Z,26.70
2023-04-15T23:46:13.930Z,29.10
2023-04-15T23:48:36.619Z,28.20
2023-04-15T23:51:00.587Z,26.98
2023-04-15T23:53:23.730Z,28.00
2023-04-15T23:55:46.472Z,28.70
2023-04-15T23:58:09.160Z,29.60
